Main page
METAR-TAF:

METAR-TAF

Airports :

Caen – Carpiquet Airport

Caen, France

latitude: 49-11N, longitude: 000-27W, elevation: 78 m

Current weather observation

The report was made 26 minutes ago, at 07:00 UTC
Wind 11 kt from the West
Temperature 5°C
Humidity 81%
Pressure 1023 hPa
Visibility 10 km or more
no clouds below 1500 m and no cumulonimbus

METAR: LFRK 170700Z AUTO 28011KT CAVOK 05/02 Q1023 NOSIG

Time: 08:26 (07:26 UTC)

Forecast

The report was made 2 hours and 26 minutes ago, at 05:00 UTC
Forecast valid from 17 at 06 UTC to 17 at 15 UTC
Wind 10 kt from the West/Northwest
Visibility 10 km or more
Broken clouds at a height of 3500 ft
Becoming
from 17 at 09 UTC to 17 at 12 UTC
Wind 12 kt from the North/Northwest

TAF: LFRK 170500Z 1706/1715 29010KT 9999 BKN035 BECMG 1709/1712 34012KT

Weather observations and forecasts of more than 4000 airports (METAR and TAF reports).

The available stations are represented by yellow and red dots on the map.

Hover mouse over dot to see the name of the station.

Then click to see weather observations and forecasts.

To change the map : click on the green buttons with a black cross to zoom in, on the green button with a dash to zoom out, or on the green arrows for adjacent maps.


METAR-TAF: